Archival Weather

Chicago O'Hare International

Chicago, Illinois (KORD)

Report from: Sunday, March 19, 2023 12:51 AM CDT
Current time: Monday, June 17, 2024 6:07 AM CDT

Current weather – Weather history – Daily summaries
Weather forecast

Temperature-6.1°C (21.0°F)
Wind chill-12.6°C (9.2°F)
Dew point-12.2°C (10.0°F)
Winds 10 kts (5.1 m/s, 11.5 mph) West (280°)
Visibility10 mi. (16.1 km)
Clouds Sky clear
Altimeter30.20 in.Hg (1023 mB)
Relative humidity62 %
Density altitude-2,933 ft. (-894 m)
Sea-level pressure102.4 kPa (1024 mB, 30.23 in.Hg)
Max temp last 6 hours-5.0°C (23.0°F)
Min temp last 6 hours-6.1°C (21.0°F)
Max temp last 24 hours-3.9°C (25.0°F)
Min temp last 24 hours-11.1°C (12.0°F)
Remarks System requires maintenance
Automated weather observing station with precipitation discriminator
Pressure rising more slowly
Flight conditions Visual Meteorological Conditions
Raw dataKORD 190551Z 28010KT 10SM CLR M06/M12 A3020 RMK AO2 SLP238 T10611122 11050 21061 410391111 51009 $
An error has occurred. This application may no longer respond until reloaded. Reload 🗙